createdAt,value
2023-09-09T00:00:52.825Z,80.05
2023-09-09T00:03:21.257Z,80.59
2023-09-09T00:05:51.399Z,81.08
2023-09-09T00:08:19.932Z,81.09
2023-09-09T00:10:47.167Z,81.11
2023-09-09T00:13:15.382Z,80.96
2023-09-09T00:15:42.961Z,80.92
2023-09-09T00:18:10.226Z,79.75
2023-09-09T00:20:38.714Z,79.20
2023-09-09T00:23:06.047Z,78.37
2023-09-09T00:25:34.752Z,79.64
2023-09-09T00:28:02.309Z,80.32
2023-09-09T00:30:31.264Z,80.72
2023-09-09T00:33:00.123Z,80.63
2023-09-09T00:35:27.936Z,80.70
2023-09-09T00:37:55.441Z,81.26
2023-09-09T00:40:22.584Z,81.63
2023-09-09T00:42:51.239Z,82.01
2023-09-09T00:45:19.676Z,82.30
2023-09-09T00:47:48.281Z,82.15
2023-09-09T00:50:15.836Z,82.29
2023-09-09T00:52:45.871Z,82.34
2023-09-09T00:55:13.054Z,82.56
2023-09-09T00:57:40.575Z,82.55
2023-09-09T01:00:12.209Z,82.34
2023-09-09T01:02:40.585Z,82.13
2023-09-09T01:05:09.662Z,82.00
2023-09-09T01:07:47.790Z,81.35
2023-09-09T01:10:17.357Z,80.14
2023-09-09T01:12:45.292Z,78.10
2023-09-09T01:15:14.512Z,77.76
2023-09-09T01:17:43.314Z,77.36
2023-09-09T01:20:14.047Z,76.61
2023-09-09T01:22:44.733Z,76.56
2023-09-09T01:25:13.467Z,77.08
2023-09-09T01:27:41.772Z,78.55
2023-09-09T01:30:10.515Z,79.10
2023-09-09T01:32:37.854Z,79.42
2023-09-09T01:35:08.210Z,79.57
2023-09-09T01:37:35.502Z,79.75
2023-09-09T01:40:08.896Z,79.80
2023-09-09T01:42:38.920Z,79.55
2023-09-09T01:45:09.903Z,79.60
2023-09-09T01:47:37.379Z,79.40
2023-09-09T01:50:05.966Z,79.47
2023-09-09T01:52:32.923Z,79.90
2023-09-09T01:55:00.494Z,80.09
2023-09-09T01:57:28.786Z,80.30
2023-09-09T01:59:57.045Z,80.29
2023-09-09T02:02:24.225Z,80.41
2023-09-09T02:04:51.193Z,80.64
2023-09-09T02:07:19.197Z,80.38
2023-09-09T02:09:46.443Z,79.79
2023-09-09T02:12:13.314Z,78.55
2023-09-09T02:14:43.405Z,77.90
2023-09-09T02:17:10.388Z,77.50
2023-09-09T02:19:37.736Z,77.31
2023-09-09T02:22:06.297Z,76.99
2023-09-09T02:24:33.331Z,77.17
2023-09-09T02:27:00.243Z,77.16
2023-09-09T02:29:27.365Z,77.04
2023-09-09T02:31:57.515Z,76.98
2023-09-09T02:34:25.049Z,77.21
2023-09-09T02:37:15.546Z,77.58
2023-09-09T02:39:42.505Z,77.67
2023-09-09T02:42:13.206Z,77.59
2023-09-09T02:44:40.873Z,77.45
2023-09-09T02:47:12.490Z,77.58
2023-09-09T02:49:41.406Z,77.98
2023-09-09T02:52:09.012Z,77.95
2023-09-09T02:54:37.577Z,78.83
2023-09-09T02:57:05.792Z,78.96
2023-09-09T02:59:36.270Z,79.39
2023-09-09T03:02:09.923Z,79.39
2023-09-09T03:04:36.933Z,79.60
2023-09-09T03:07:05.787Z,79.77
2023-09-09T03:09:33.629Z,79.70
2023-09-09T03:12:00.656Z,79.92
2023-09-09T03:14:31.415Z,79.89
2023-09-09T03:16:58.823Z,79.28
2023-09-09T03:19:27.393Z,79.08
2023-09-09T03:22:02.922Z,78.74
2023-09-09T03:24:31.173Z,78.59
2023-09-09T03:26:58.175Z,78.46
2023-09-09T03:29:25.443Z,78.01
2023-09-09T03:31:54.923Z,77.81
2023-09-09T03:34:22.788Z,77.28
2023-09-09T03:36:52.608Z,76.99
2023-09-09T03:39:21.860Z,77.89
2023-09-09T03:41:49.579Z,78.21
2023-09-09T03:44:16.679Z,78.51
2023-09-09T03:46:46.616Z,78.49
2023-09-09T03:49:16.112Z,79.09
2023-09-09T03:51:43.112Z,79.07
2023-09-09T03:54:12.927Z,79.51
2023-09-09T03:56:40.149Z,79.53
2023-09-09T03:59:07.709Z,79.56
2023-09-09T04:01:38.228Z,79.34
2023-09-09T04:04:06.431Z,79.08
2023-09-09T04:06:33.968Z,78.74
2023-09-09T04:09:02.781Z,79.05
2023-09-09T04:11:32.388Z,79.57
2023-09-09T04:14:02.300Z,79.47
2023-09-09T04:16:31.271Z,79.56
2023-09-09T04:19:00.780Z,79.22
2023-09-09T04:21:27.732Z,79.36
2023-09-09T04:23:56.670Z,79.11
2023-09-09T04:26:25.924Z,79.46
2023-09-09T04:28:54.833Z,79.82
2023-09-09T04:31:24.965Z,80.08
2023-09-09T04:33:54.003Z,78.91
2023-09-09T04:36:21.029Z,77.49
2023-09-09T04:38:48.014Z,77.44
2023-09-09T04:41:15.147Z,77.72
2023-09-09T04:43:42.457Z,78.17
2023-09-09T04:46:11.220Z,78.49
2023-09-09T04:48:38.878Z,78.62
2023-09-09T04:51:06.016Z,78.59
2023-09-09T04:53:33.200Z,78.78
2023-09-09T04:56:00.238Z,78.59
2023-09-09T04:58:27.723Z,78.63
2023-09-09T05:00:55.015Z,78.32
2023-09-09T05:03:24.701Z,78.18
2023-09-09T05:05:51.833Z,78.82
2023-09-09T05:08:18.940Z,79.65
2023-09-09T05:10:45.856Z,80.35
2023-09-09T05:13:13.096Z,80.02
2023-09-09T05:15:40.966Z,79.27
2023-09-09T05:18:09.536Z,78.23
2023-09-09T05:20:38.579Z,77.47
2023-09-09T05:23:06.256Z,76.10
2023-09-09T05:25:34.491Z,73.89
2023-09-09T05:28:02.287Z,71.83
2023-09-09T05:30:30.658Z,69.75
2023-09-09T05:32:59.871Z,68.69
2023-09-09T05:35:27.724Z,68.63
2023-09-09T05:37:56.742Z,67.62
2023-09-09T05:40:24.712Z,65.52
2023-09-09T05:42:53.131Z,63.49
2023-09-09T05:45:20.130Z,61.08
2023-09-09T05:47:49.332Z,59.04
2023-09-09T05:50:18.105Z,56.95
2023-09-09T05:52:45.339Z,54.67
2023-09-09T05:55:14.489Z,53.81
2023-09-09T05:57:42.822Z,52.29
2023-09-09T06:00:11.210Z,50.69
2023-09-09T06:02:44.750Z,49.24
2023-09-09T06:05:12.561Z,48.60
2023-09-09T06:07:42.332Z,48.51
2023-09-09T06:10:11.103Z,47.83
2023-09-09T06:12:39.657Z,47.38
2023-09-09T06:15:08.935Z,46.56
2023-09-09T06:17:36.302Z,45.52
2023-09-09T06:20:04.318Z,44.85
2023-09-09T06:22:31.434Z,44.54
2023-09-09T06:24:58.731Z,43.78
2023-09-09T06:27:25.777Z,43.16
2023-09-09T06:29:54.327Z,43.38
2023-09-09T06:32:22.323Z,42.78
2023-09-09T06:34:50.207Z,43.20
2023-09-09T06:37:18.432Z,43.02
2023-09-09T06:39:45.677Z,42.74
2023-09-09T06:42:12.625Z,41.97
2023-09-09T06:44:40.317Z,41.99
2023-09-09T06:47:08.715Z,41.42
2023-09-09T06:49:35.689Z,41.60
2023-09-09T06:52:02.689Z,40.97
2023-09-09T06:54:29.636Z,40.97
2023-09-09T06:56:56.582Z,40.30
2023-09-09T06:59:23.653Z,41.26
2023-09-09T07:01:50.646Z,41.69
2023-09-09T07:04:18.954Z,40.95
2023-09-09T07:07:00.133Z,41.89
2023-09-09T07:09:33.690Z,41.64
2023-09-09T07:12:03.490Z,40.75
2023-09-09T07:14:34.155Z,40.11
2023-09-09T07:17:02.302Z,37.94
2023-09-09T07:19:32.380Z,37.02
2023-09-09T07:21:59.416Z,37.19
2023-09-09T07:24:26.464Z,38.04
2023-09-09T07:26:53.605Z,38.08
2023-09-09T07:29:21.839Z,38.52
2023-09-09T07:31:51.573Z,37.41
2023-09-09T07:34:18.854Z,37.29
2023-09-09T07:36:48.112Z,38.02
2023-09-09T07:39:15.020Z,37.41
2023-09-09T07:41:41.995Z,36.55
2023-09-09T07:44:09.213Z,37.03
2023-09-09T07:46:36.757Z,38.13
2023-09-09T07:49:04.017Z,37.49
2023-09-09T07:51:31.095Z,37.79
2023-09-09T07:53:59.438Z,37.45
2023-09-09T07:56:29.076Z,37.10
2023-09-09T07:58:56.020Z,37.96
2023-09-09T08:01:23.015Z,38.30
2023-09-09T08:03:50.652Z,36.80
2023-09-09T08:06:23.311Z,36.61
2023-09-09T08:08:50.283Z,36.50
2023-09-09T08:11:18.999Z,36.18
2023-09-09T08:13:45.875Z,34.62
2023-09-09T08:16:13.188Z,35.58
2023-09-09T08:18:40.172Z,35.71
2023-09-09T08:21:07.204Z,35.69
2023-09-09T08:23:34.361Z,34.82
2023-09-09T08:26:01.648Z,34.36
2023-09-09T08:28:31.346Z,33.79
2023-09-09T08:30:59.098Z,33.85
2023-09-09T08:33:26.654Z,33.89
2023-09-09T08:35:58.486Z,33.77
2023-09-09T08:38:25.866Z,33.33
2023-09-09T08:41:04.494Z,33.62
2023-09-09T08:43:52.662Z,33.55
2023-09-09T08:46:24.438Z,31.69
2023-09-09T08:48:53.413Z,32.52
2023-09-09T08:51:33.568Z,32.19
2023-09-09T08:54:03.934Z,31.50
2023-09-09T08:56:33.260Z,32.90
2023-09-09T08:59:01.870Z,33.11
2023-09-09T09:01:29.989Z,35.65
2023-09-09T09:03:59.444Z,37.52
2023-09-09T09:06:30.625Z,38.75
2023-09-09T09:08:57.843Z,38.60
2023-09-09T09:11:25.653Z,39.91
2023-09-09T09:13:52.670Z,38.71
2023-09-09T09:16:21.046Z,40.48
2023-09-09T09:18:48.217Z,42.01
2023-09-09T09:21:15.879Z,42.37
2023-09-09T09:23:44.589Z,43.00
2023-09-09T09:26:28.464Z,41.97
2023-09-09T09:28:56.526Z,42.19
2023-09-09T09:31:28.322Z,41.59
2023-09-09T09:33:55.833Z,40.86
2023-09-09T09:36:24.662Z,40.61
2023-09-09T09:38:54.611Z,39.23
2023-09-09T09:41:23.423Z,38.88
2023-09-09T09:43:51.860Z,39.36
2023-09-09T09:46:21.645Z,39.26
2023-09-09T09:48:50.516Z,39.95
2023-09-09T09:51:17.692Z,41.32
2023-09-09T09:53:54.713Z,39.81
2023-09-09T09:56:22.321Z,40.24
2023-09-09T09:58:51.352Z,39.20
2023-09-09T10:01:18.647Z,38.78
2023-09-09T10:03:55.681Z,38.04
2023-09-09T10:06:27.369Z,37.82
2023-09-09T10:09:01.088Z,37.45
2023-09-09T10:11:36.632Z,36.28
2023-09-09T10:14:14.767Z,35.47
2023-09-09T10:16:43.863Z,35.39
2023-09-09T10:19:14.462Z,35.89
2023-09-09T10:21:44.640Z,36.19
2023-09-09T10:24:15.290Z,36.69
2023-09-09T10:26:43.593Z,36.74
2023-09-09T10:29:12.266Z,35.85
2023-09-09T10:31:42.440Z,38.22
2023-09-09T10:34:13.471Z,34.31
2023-09-09T10:36:59.432Z,35.10
2023-09-09T10:39:29.284Z,33.69
2023-09-09T10:41:58.692Z,33.92
2023-09-09T10:44:26.339Z,33.46
2023-09-09T10:46:57.750Z,32.41
2023-09-09T10:49:30.850Z,30.03
2023-09-09T10:51:57.998Z,30.10
2023-09-09T10:54:27.776Z,29.68
2023-09-09T10:56:58.664Z,31.50
2023-09-09T10:59:28.951Z,29.91
2023-09-09T11:02:11.941Z,29.81
2023-09-09T11:04:43.181Z,30.94
2023-09-09T11:07:13.030Z,30.84
2023-09-09T11:09:51.782Z,30.18
2023-09-09T11:12:26.891Z,29.87
2023-09-09T11:15:05.806Z,29.12
2023-09-09T11:17:37.038Z,29.81
2023-09-09T11:20:11.699Z,28.30
2023-09-09T11:22:40.259Z,28.67
2023-09-09T11:25:09.255Z,29.23
2023-09-09T11:27:37.101Z,28.64
2023-09-09T11:30:05.318Z,31.29
2023-09-09T11:32:33.653Z,36.02
2023-09-09T11:35:00.829Z,37.46
2023-09-09T11:37:30.358Z,37.24
2023-09-09T11:39:57.841Z,38.61
2023-09-09T11:42:25.219Z,39.22
2023-09-09T11:44:52.202Z,39.06
2023-09-09T11:47:19.801Z,41.52
2023-09-09T11:49:50.220Z,41.30
2023-09-09T11:52:21.091Z,39.04
2023-09-09T11:54:50.465Z,39.08
2023-09-09T11:57:18.509Z,38.81
2023-09-09T11:59:50.681Z,40.16
2023-09-09T12:02:22.681Z,40.68
2023-09-09T12:04:56.467Z,42.01
2023-09-09T12:07:29.540Z,43.05
2023-09-09T12:10:00.208Z,43.61
2023-09-09T12:12:28.626Z,43.87
2023-09-09T12:14:59.059Z,45.39
2023-09-09T12:17:26.846Z,45.22
2023-09-09T12:19:55.539Z,44.80
2023-09-09T12:22:33.736Z,44.27
2023-09-09T12:25:05.984Z,44.60
2023-09-09T12:27:44.265Z,42.36
2023-09-09T12:30:33.875Z,44.11
2023-09-09T12:33:09.561Z,42.66
2023-09-09T12:35:42.815Z,41.88
2023-09-09T12:38:11.191Z,42.34
2023-09-09T12:40:52.588Z,41.17
2023-09-09T12:43:24.634Z,41.12
2023-09-09T12:45:55.965Z,41.66
2023-09-09T12:48:24.256Z,41.67
2023-09-09T12:50:51.506Z,43.35
2023-09-09T12:53:19.240Z,41.08
2023-09-09T12:55:47.225Z,42.41
2023-09-09T12:58:15.665Z,41.76
2023-09-09T13:00:43.809Z,40.45
2023-09-09T13:03:10.884Z,43.45
2023-09-09T13:05:38.030Z,41.04
2023-09-09T13:08:05.697Z,40.43
2023-09-09T13:10:34.513Z,38.48
2023-09-09T13:13:03.408Z,39.14
2023-09-09T13:15:33.090Z,38.53
2023-09-09T13:18:00.122Z,39.82
2023-09-09T13:20:27.617Z,40.78
2023-09-09T13:22:54.934Z,40.93
2023-09-09T13:25:24.112Z,40.51
2023-09-09T13:27:52.290Z,38.84
2023-09-09T13:30:20.189Z,40.55
2023-09-09T13:32:48.558Z,39.51
2023-09-09T13:35:15.997Z,40.15
2023-09-09T13:37:43.349Z,39.57
2023-09-09T13:40:11.285Z,39.11
2023-09-09T13:42:39.201Z,39.71
2023-09-09T13:45:10.994Z,39.29
2023-09-09T13:47:39.493Z,40.62
2023-09-09T13:50:09.914Z,40.50
2023-09-09T13:52:37.130Z,41.15
2023-09-09T13:55:05.887Z,41.23
2023-09-09T13:57:32.930Z,39.71
2023-09-09T14:00:00.037Z,39.94
2023-09-09T14:02:27.559Z,39.13
2023-09-09T14:04:55.417Z,38.68
2023-09-09T14:07:24.237Z,39.03
2023-09-09T14:09:51.187Z,40.11
2023-09-09T14:12:18.116Z,40.84
2023-09-09T14:14:45.312Z,39.47
2023-09-09T14:17:12.464Z,39.86
2023-09-09T14:19:40.553Z,39.26
2023-09-09T14:22:07.904Z,38.76
2023-09-09T14:24:36.830Z,38.92
2023-09-09T14:27:04.962Z,39.55
2023-09-09T14:29:34.229Z,39.18
2023-09-09T14:32:01.245Z,38.25
2023-09-09T14:34:28.572Z,38.74
2023-09-09T14:36:55.467Z,38.74
2023-09-09T14:39:22.432Z,39.74
2023-09-09T14:41:51.983Z,38.69
2023-09-09T14:44:19.063Z,39.64
2023-09-09T14:46:46.025Z,39.95
2023-09-09T14:49:13.349Z,39.65
2023-09-09T14:51:41.853Z,38.96
2023-09-09T14:54:10.587Z,39.97
2023-09-09T14:56:37.562Z,39.46
2023-09-09T14:59:05.883Z,40.15
2023-09-09T15:01:33.228Z,39.94
2023-09-09T15:04:00.678Z,39.75
2023-09-09T15:06:27.602Z,39.68
2023-09-09T15:08:54.482Z,38.82
2023-09-09T15:11:22.429Z,38.90
2023-09-09T15:13:50.171Z,39.78
2023-09-09T15:16:21.483Z,39.51
2023-09-09T15:18:49.896Z,40.66
2023-09-09T15:21:17.078Z,40.43
2023-09-09T15:23:44.651Z,40.03
2023-09-09T15:26:11.657Z,39.76
2023-09-09T15:28:39.157Z,39.83
2023-09-09T15:31:06.343Z,40.52
2023-09-09T15:33:37.123Z,40.65
2023-09-09T15:36:04.821Z,40.66
2023-09-09T15:38:31.824Z,39.95
2023-09-09T15:40:58.829Z,40.71
2023-09-09T15:43:25.904Z,39.95
2023-09-09T15:46:02.803Z,39.88
2023-09-09T15:48:31.563Z,39.42
2023-09-09T15:51:03.570Z,40.04
2023-09-09T15:53:31.098Z,39.29
2023-09-09T15:55:59.155Z,39.82
2023-09-09T15:58:27.042Z,40.97
2023-09-09T16:00:55.117Z,40.15
2023-09-09T16:03:22.167Z,39.26
2023-09-09T16:05:49.276Z,40.09
2023-09-09T16:08:17.535Z,40.14
2023-09-09T16:10:44.427Z,40.44
2023-09-09T16:13:12.516Z,40.66
2023-09-09T16:15:39.745Z,40.94
2023-09-09T16:18:10.032Z,41.75
2023-09-09T16:20:37.548Z,41.41
2023-09-09T16:23:06.464Z,41.06
2023-09-09T16:25:36.683Z,41.69
2023-09-09T16:28:04.482Z,41.01
2023-09-09T16:30:31.437Z,41.87
2023-09-09T16:32:58.382Z,42.40
2023-09-09T16:35:26.967Z,41.68
2023-09-09T16:37:53.968Z,42.45
2023-09-09T16:40:21.421Z,42.22
2023-09-09T16:42:49.843Z,43.16
2023-09-09T16:45:17.068Z,43.29
2023-09-09T16:47:44.708Z,42.61
2023-09-09T16:50:11.701Z,42.17
2023-09-09T16:52:39.930Z,42.75
2023-09-09T16:55:08.935Z,43.27
2023-09-09T16:57:38.687Z,43.61
2023-09-09T17:00:09.917Z,43.76
2023-09-09T17:02:38.184Z,43.01
2023-09-09T17:05:06.512Z,43.12
2023-09-09T17:07:34.685Z,43.56
2023-09-09T17:10:02.261Z,44.24
2023-09-09T17:12:29.588Z,44.49
2023-09-09T17:14:59.527Z,45.75
2023-09-09T17:17:28.180Z,44.78
2023-09-09T17:19:55.678Z,45.75
2023-09-09T17:22:22.720Z,45.66
2023-09-09T17:24:49.963Z,45.91
2023-09-09T17:27:17.122Z,45.98
2023-09-09T17:29:44.803Z,47.21
2023-09-09T17:32:11.736Z,47.71
2023-09-09T17:34:42.723Z,47.39
2023-09-09T17:37:10.198Z,47.58
2023-09-09T17:39:38.249Z,48.64
2023-09-09T17:42:05.828Z,49.43
2023-09-09T17:44:33.835Z,49.02
2023-09-09T17:47:00.856Z,48.86
2023-09-09T17:49:27.914Z,49.00
2023-09-09T17:51:56.443Z,48.76
2023-09-09T17:54:23.980Z,48.83
2023-09-09T17:56:52.857Z,50.51
2023-09-09T17:59:21.626Z,53.94
2023-09-09T18:01:50.140Z,54.15
2023-09-09T18:04:18.835Z,55.51
2023-09-09T18:06:46.455Z,56.48
2023-09-09T18:09:15.130Z,57.29
2023-09-09T18:11:42.746Z,58.13
2023-09-09T18:14:09.952Z,59.92
2023-09-09T18:16:37.265Z,59.65
2023-09-09T18:19:05.087Z,60.57
2023-09-09T18:21:33.032Z,61.69
2023-09-09T18:24:00.061Z,62.76
2023-09-09T18:26:29.756Z,63.66
2023-09-09T18:28:56.891Z,63.93
2023-09-09T18:31:25.651Z,63.64
2023-09-09T18:33:53.640Z,63.19
2023-09-09T18:36:20.647Z,64.06
2023-09-09T18:38:47.666Z,63.80
2023-09-09T18:41:14.651Z,64.44
2023-09-09T18:43:43.752Z,64.75
2023-09-09T18:46:11.918Z,64.53
2023-09-09T18:48:39.256Z,64.82
2023-09-09T18:51:06.443Z,64.33
2023-09-09T18:53:33.669Z,64.64
2023-09-09T18:56:00.658Z,64.68
2023-09-09T18:58:27.689Z,64.96
2023-09-09T19:00:56.049Z,65.40
2023-09-09T19:03:23.504Z,65.79
2023-09-09T19:05:51.036Z,65.88
2023-09-09T19:08:20.616Z,65.59
2023-09-09T19:10:47.554Z,66.03
2023-09-09T19:13:15.063Z,66.75
2023-09-09T19:15:42.099Z,68.16
2023-09-09T19:18:10.730Z,68.56
2023-09-09T19:20:37.998Z,70.11
2023-09-09T19:23:05.289Z,70.92
2023-09-09T19:25:35.501Z,70.99
2023-09-09T19:28:03.138Z,71.30
2023-09-09T19:30:32.214Z,70.41
2023-09-09T19:32:59.301Z,70.43
2023-09-09T19:35:28.144Z,71.01
2023-09-09T19:37:55.496Z,71.08
2023-09-09T19:40:22.840Z,70.65
2023-09-09T19:42:50.609Z,70.82
2023-09-09T19:45:19.151Z,71.25
2023-09-09T19:47:46.199Z,71.26
2023-09-09T19:50:13.275Z,70.71
2023-09-09T19:52:41.646Z,70.41
2023-09-09T19:55:10.376Z,70.31
2023-09-09T19:57:37.261Z,70.79
2023-09-09T20:00:06.686Z,70.57
2023-09-09T20:02:33.684Z,71.02
2023-09-09T20:05:01.190Z,71.51
2023-09-09T20:07:29.319Z,71.26
2023-09-09T20:10:07.826Z,71.23
2023-09-09T20:12:35.091Z,71.07
2023-09-09T20:15:02.453Z,70.50
2023-09-09T20:17:29.536Z,70.30
2023-09-09T20:19:56.995Z,70.23
2023-09-09T20:22:26.822Z,70.36
2023-09-09T20:24:56.763Z,70.41
2023-09-09T20:27:23.713Z,70.41
2023-09-09T20:29:51.423Z,72.00
2023-09-09T20:32:18.914Z,72.06
2023-09-09T20:34:50.821Z,72.93
2023-09-09T20:37:17.877Z,72.44
2023-09-09T20:39:44.874Z,72.11
2023-09-09T20:42:13.281Z,72.27
2023-09-09T20:44:40.458Z,71.31
2023-09-09T20:47:07.434Z,71.02
2023-09-09T20:49:34.581Z,71.10
2023-09-09T20:52:01.486Z,71.34
2023-09-09T20:54:28.480Z,73.09
2023-09-09T20:56:55.437Z,74.56
2023-09-09T20:59:23.988Z,74.92
2023-09-09T21:01:51.281Z,74.83
2023-09-09T21:04:18.451Z,74.94
2023-09-09T21:06:46.787Z,74.35
2023-09-09T21:09:13.767Z,73.64
2023-09-09T21:11:40.754Z,74.25
2023-09-09T21:14:07.842Z,74.07
2023-09-09T21:16:36.210Z,74.71
2023-09-09T21:19:05.539Z,74.58
2023-09-09T21:21:32.478Z,74.63
2023-09-09T21:23:59.503Z,76.29
2023-09-09T21:26:26.424Z,76.43
2023-09-09T21:28:53.957Z,78.03
2023-09-09T21:31:21.068Z,79.08
2023-09-09T21:33:50.367Z,78.64
2023-09-09T21:36:17.314Z,78.85
2023-09-09T21:38:44.880Z,79.09
2023-09-09T21:41:12.202Z,78.58
2023-09-09T21:43:39.390Z,78.47
2023-09-09T21:46:07.042Z,79.10
2023-09-09T21:48:34.394Z,78.82
2023-09-09T21:51:03.273Z,78.96
2023-09-09T21:53:30.161Z,78.26
2023-09-09T21:55:57.859Z,78.02
2023-09-09T21:58:24.973Z,77.62
2023-09-09T22:00:52.233Z,77.31
2023-09-09T22:03:19.597Z,76.98
2023-09-09T22:05:46.599Z,76.52
2023-09-09T22:08:15.189Z,76.32
2023-09-09T22:10:42.254Z,76.06
2023-09-09T22:13:09.523Z,75.55
2023-09-09T22:15:36.489Z,75.75
2023-09-09T22:18:04.153Z,75.29
2023-09-09T22:20:31.238Z,75.49
2023-09-09T22:22:58.520Z,77.57
2023-09-09T22:25:29.577Z,77.41
2023-09-09T22:28:05.037Z,78.05
2023-09-09T22:30:34.878Z,78.00
2023-09-09T22:33:05.818Z,77.60
2023-09-09T22:35:33.712Z,76.36
2023-09-09T22:38:01.019Z,76.40
2023-09-09T22:40:31.518Z,76.41
2023-09-09T22:43:01.787Z,76.34
2023-09-09T22:45:30.333Z,76.40
2023-09-09T22:47:57.816Z,76.05
2023-09-09T22:50:24.691Z,76.08
2023-09-09T22:52:51.934Z,77.61
2023-09-09T22:55:19.126Z,78.98
2023-09-09T22:57:47.466Z,79.63
2023-09-09T23:00:15.866Z,80.01
2023-09-09T23:02:43.260Z,80.55
2023-09-09T23:05:10.630Z,80.64
2023-09-09T23:07:50.135Z,80.72
2023-09-09T23:10:18.989Z,80.79
2023-09-09T23:12:47.718Z,80.94
2023-09-09T23:15:15.025Z,80.84
2023-09-09T23:17:41.988Z,80.68
2023-09-09T23:20:11.299Z,80.50
2023-09-09T23:22:38.697Z,80.73
2023-09-09T23:25:06.844Z,80.25
2023-09-09T23:27:33.754Z,80.01
2023-09-09T23:30:02.229Z,79.30
2023-09-09T23:32:29.699Z,78.74
2023-09-09T23:34:56.762Z,78.60
2023-09-09T23:37:23.928Z,78.92
2023-09-09T23:39:51.081Z,79.07
2023-09-09T23:42:18.120Z,79.66
2023-09-09T23:44:45.072Z,79.25
2023-09-09T23:47:13.330Z,79.13
2023-09-09T23:49:40.648Z,79.34
2023-09-09T23:52:07.492Z,79.50
2023-09-09T23:54:35.082Z,79.65
2023-09-09T23:57:02.094Z,80.03
2023-09-09T23:59:29.061Z,79.78
